sensor_id;sensor_type;location;lat;lon;timestamp;P1;durP1;ratioP1;P2;durP2;ratioP2
38083;SDS011;23894;51.466;7.444;2024-01-07T00:01:48;11.18;;;8.02;;
38083;SDS011;23894;51.466;7.444;2024-01-07T00:03:50;12.10;;;8.50;;
38083;SDS011;23894;51.466;7.444;2024-01-07T00:05:51;14.25;;;9.85;;
38083;SDS011;23894;51.466;7.444;2024-01-07T00:07:52;12.52;;;9.13;;
38083;SDS011;23894;51.466;7.444;2024-01-07T00:09:53;11.55;;;8.23;;
38083;SDS011;23894;51.466;7.444;2024-01-07T00:11:54;15.57;;;10.60;;
38083;SDS011;23894;51.466;7.444;2024-01-07T00:13:55;18.20;;;10.32;;
38083;SDS011;23894;51.466;7.444;2024-01-07T00:15:56;15.63;;;10.93;;
38083;SDS011;23894;51.466;7.444;2024-01-07T00:17:57;17.02;;;11.25;;
38083;SDS011;23894;51.466;7.444;2024-01-07T00:19:58;16.17;;;11.27;;
38083;SDS011;23894;51.466;7.444;2024-01-07T00:21:59;17.48;;;11.15;;
38083;SDS011;23894;51.466;7.444;2024-01-07T00:24:00;16.77;;;11.63;;
38083;SDS011;23894;51.466;7.444;2024-01-07T00:26:01;18.77;;;12.30;;
38083;SDS011;23894;51.466;7.444;2024-01-07T00:28:03;22.00;;;13.60;;
38083;SDS011;23894;51.466;7.444;2024-01-07T00:32:05;20.00;;;12.13;;
38083;SDS011;23894;51.466;7.444;2024-01-07T00:34:06;18.52;;;12.73;;
38083;SDS011;23894;51.466;7.444;2024-01-07T00:36:07;17.92;;;13.30;;
38083;SDS011;23894;51.466;7.444;2024-01-07T00:40:09;19.20;;;13.20;;
38083;SDS011;23894;51.466;7.444;2024-01-07T00:42:11;19.17;;;12.48;;
38083;SDS011;23894;51.466;7.444;2024-01-07T00:46:13;16.67;;;12.70;;
38083;SDS011;23894;51.466;7.444;2024-01-07T00:48:14;22.85;;;14.43;;
38083;SDS011;23894;51.466;7.444;2024-01-07T00:50:15;19.73;;;13.88;;
38083;SDS011;23894;51.466;7.444;2024-01-07T00:52:17;20.20;;;13.55;;
38083;SDS011;23894;51.466;7.444;2024-01-07T00:54:18;19.45;;;13.93;;
38083;SDS011;23894;51.466;7.444;2024-01-07T00:56:18;22.00;;;14.70;;
38083;SDS011;23894;51.466;7.444;2024-01-07T00:58:19;18.92;;;14.25;;
38083;SDS011;23894;51.466;7.444;2024-01-07T01:00:21;21.98;;;13.60;;
38083;SDS011;23894;51.466;7.444;2024-01-07T01:02:22;18.58;;;13.00;;
38083;SDS011;23894;51.466;7.444;2024-01-07T01:04:23;21.00;;;14.25;;
38083;SDS011;23894;51.466;7.444;2024-01-07T01:06:24;18.98;;;13.40;;
38083;SDS011;23894;51.466;7.444;2024-01-07T01:08:25;20.85;;;13.63;;
38083;SDS011;23894;51.466;7.444;2024-01-07T01:10:26;23.17;;;13.73;;
38083;SDS011;23894;51.466;7.444;2024-01-07T01:12:27;16.52;;;12.48;;
38083;SDS011;23894;51.466;7.444;2024-01-07T01:14:28;20.02;;;14.07;;
38083;SDS011;23894;51.466;7.444;2024-01-07T01:16:29;20.45;;;13.82;;
38083;SDS011;23894;51.466;7.444;2024-01-07T01:18:30;19.98;;;13.93;;
38083;SDS011;23894;51.466;7.444;2024-01-07T01:20:31;19.60;;;13.35;;
38083;SDS011;23894;51.466;7.444;2024-01-07T01:22:32;19.65;;;12.98;;
38083;SDS011;23894;51.466;7.444;2024-01-07T01:24:33;18.13;;;12.20;;
38083;SDS011;23894;51.466;7.444;2024-01-07T01:26:34;17.73;;;12.77;;
38083;SDS011;23894;51.466;7.444;2024-01-07T01:28:35;20.20;;;13.55;;
38083;SDS011;23894;51.466;7.444;2024-01-07T01:30:36;20.40;;;13.68;;
38083;SDS011;23894;51.466;7.444;2024-01-07T01:32:38;17.30;;;13.23;;
38083;SDS011;23894;51.466;7.444;2024-01-07T01:34:42;19.23;;;12.82;;
38083;SDS011;23894;51.466;7.444;2024-01-07T01:36:43;21.42;;;13.82;;
38083;SDS011;23894;51.466;7.444;2024-01-07T01:38:44;19.50;;;13.85;;
38083;SDS011;23894;51.466;7.444;2024-01-07T01:40:50;19.35;;;13.45;;
38083;SDS011;23894;51.466;7.444;2024-01-07T01:42:52;21.77;;;15.30;;
38083;SDS011;23894;51.466;7.444;2024-01-07T01:44:53;19.60;;;14.88;;
38083;SDS011;23894;51.466;7.444;2024-01-07T01:46:57;21.25;;;15.23;;
38083;SDS011;23894;51.466;7.444;2024-01-07T01:49:00;21.13;;;14.18;;
38083;SDS011;23894;51.466;7.444;2024-01-07T01:51:01;22.48;;;14.77;;
38083;SDS011;23894;51.466;7.444;2024-01-07T01:53:02;22.05;;;14.60;;
38083;SDS011;23894;51.466;7.444;2024-01-07T01:55:03;23.73;;;15.35;;
38083;SDS011;23894;51.466;7.444;2024-01-07T01:57:05;18.33;;;14.07;;
38083;SDS011;23894;51.466;7.444;2024-01-07T01:59:06;21.20;;;15.00;;
38083;SDS011;23894;51.466;7.444;2024-01-07T02:03:08;23.95;;;16.20;;
38083;SDS011;23894;51.466;7.444;2024-01-07T02:05:09;24.77;;;16.15;;
38083;SDS011;23894;51.466;7.444;2024-01-07T02:07:10;22.70;;;16.42;;
38083;SDS011;23894;51.466;7.444;2024-01-07T02:09:11;23.83;;;17.10;;
38083;SDS011;23894;51.466;7.444;2024-01-07T02:13:16;24.38;;;16.50;;
38083;SDS011;23894;51.466;7.444;2024-01-07T02:15:17;24.75;;;17.55;;
38083;SDS011;23894;51.466;7.444;2024-01-07T02:17:18;23.92;;;16.45;;
38083;SDS011;23894;51.466;7.444;2024-01-07T02:19:20;23.98;;;16.77;;
38083;SDS011;23894;51.466;7.444;2024-01-07T02:21:21;22.88;;;16.48;;
38083;SDS011;23894;51.466;7.444;2024-01-07T02:23:22;24.45;;;17.15;;
38083;SDS011;23894;51.466;7.444;2024-01-07T02:25:23;22.67;;;17.23;;
38083;SDS011;23894;51.466;7.444;2024-01-07T02:27:24;23.75;;;15.90;;
38083;SDS011;23894;51.466;7.444;2024-01-07T02:29:25;22.77;;;16.23;;
38083;SDS011;23894;51.466;7.444;2024-01-07T02:31:26;22.35;;;15.65;;
38083;SDS011;23894;51.466;7.444;2024-01-07T02:33:27;23.83;;;16.23;;
38083;SDS011;23894;51.466;7.444;2024-01-07T02:35:29;25.48;;;16.90;;
38083;SDS011;23894;51.466;7.444;2024-01-07T02:37:30;23.23;;;16.60;;
38083;SDS011;23894;51.466;7.444;2024-01-07T02:39:31;19.00;;;14.52;;
38083;SDS011;23894;51.466;7.444;2024-01-07T02:41:32;22.42;;;15.95;;
38083;SDS011;23894;51.466;7.444;2024-01-07T02:43:33;21.48;;;15.63;;
38083;SDS011;23894;51.466;7.444;2024-01-07T02:45:34;22.48;;;15.95;;
38083;SDS011;23894;51.466;7.444;2024-01-07T02:49:36;20.58;;;15.20;;
38083;SDS011;23894;51.466;7.444;2024-01-07T02:51:37;21.42;;;16.15;;
38083;SDS011;23894;51.466;7.444;2024-01-07T02:53:38;23.05;;;16.77;;
38083;SDS011;23894;51.466;7.444;2024-01-07T02:55:39;20.77;;;16.52;;
38083;SDS011;23894;51.466;7.444;2024-01-07T02:59:41;20.48;;;14.23;;
38083;SDS011;23894;51.466;7.444;2024-01-07T03:01:42;20.00;;;14.75;;
38083;SDS011;23894;51.466;7.444;2024-01-07T03:03:43;22.38;;;16.05;;
38083;SDS011;23894;51.466;7.444;2024-01-07T03:05:44;20.67;;;15.15;;
38083;SDS011;23894;51.466;7.444;2024-01-07T03:07:45;21.02;;;15.75;;
38083;SDS011;23894;51.466;7.444;2024-01-07T03:09:47;19.02;;;15.00;;
38083;SDS011;23894;51.466;7.444;2024-01-07T03:11:48;20.02;;;15.00;;
38083;SDS011;23894;51.466;7.444;2024-01-07T03:13:49;20.58;;;15.32;;
38083;SDS011;23894;51.466;7.444;2024-01-07T03:15:50;24.30;;;15.23;;
38083;SDS011;23894;51.466;7.444;2024-01-07T03:17:51;18.67;;;14.80;;
38083;SDS011;23894;51.466;7.444;2024-01-07T03:19:52;19.25;;;14.70;;
38083;SDS011;23894;51.466;7.444;2024-01-07T03:21:53;16.90;;;14.45;;
38083;SDS011;23894;51.466;7.444;2024-01-07T03:23:54;19.30;;;15.75;;
38083;SDS011;23894;51.466;7.444;2024-01-07T03:25:57;23.15;;;15.18;;
38083;SDS011;23894;51.466;7.444;2024-01-07T03:27:58;20.05;;;14.52;;
38083;SDS011;23894;51.466;7.444;2024-01-07T03:29:59;18.90;;;14.95;;
38083;SDS011;23894;51.466;7.444;2024-01-07T03:32:00;18.17;;;13.43;;
38083;SDS011;23894;51.466;7.444;2024-01-07T03:34:01;17.20;;;13.73;;
38083;SDS011;23894;51.466;7.444;2024-01-07T03:36:06;18.80;;;14.00;;
38083;SDS011;23894;51.466;7.444;2024-01-07T03:38:07;18.40;;;13.65;;
38083;SDS011;23894;51.466;7.444;2024-01-07T03:40:09;19.42;;;13.73;;
38083;SDS011;23894;51.466;7.444;2024-01-07T03:42:11;17.02;;;13.85;;
38083;SDS011;23894;51.466;7.444;2024-01-07T03:44:13;15.70;;;12.88;;
38083;SDS011;23894;51.466;7.444;2024-01-07T03:46:15;16.80;;;13.65;;
38083;SDS011;23894;51.466;7.444;2024-01-07T03:48:16;17.17;;;12.52;;
38083;SDS011;23894;51.466;7.444;2024-01-07T03:50:17;17.02;;;13.55;;
38083;SDS011;23894;51.466;7.444;2024-01-07T03:52:18;16.00;;;12.88;;
38083;SDS011;23894;51.466;7.444;2024-01-07T03:54:19;16.58;;;13.93;;
38083;SDS011;23894;51.466;7.444;2024-01-07T03:56:20;20.55;;;15.20;;
38083;SDS011;23894;51.466;7.444;2024-01-07T03:58:21;18.63;;;14.75;;
38083;SDS011;23894;51.466;7.444;2024-01-07T04:00:22;20.05;;;14.32;;
38083;SDS011;23894;51.466;7.444;2024-01-07T04:04:24;18.77;;;14.27;;
38083;SDS011;23894;51.466;7.444;2024-01-07T04:06:25;22.52;;;15.77;;
38083;SDS011;23894;51.466;7.444;2024-01-07T04:08:26;19.08;;;14.27;;
38083;SDS011;23894;51.466;7.444;2024-01-07T04:10:28;20.13;;;14.23;;
38083;SDS011;23894;51.466;7.444;2024-01-07T04:12:29;17.95;;;15.23;;
38083;SDS011;23894;51.466;7.444;2024-01-07T04:14:30;19.33;;;15.15;;
38083;SDS011;23894;51.466;7.444;2024-01-07T04:16:33;18.55;;;14.25;;
38083;SDS011;23894;51.466;7.444;2024-01-07T04:18:34;18.75;;;14.77;;
38083;SDS011;23894;51.466;7.444;2024-01-07T04:20:35;18.60;;;15.15;;
38083;SDS011;23894;51.466;7.444;2024-01-07T04:22:36;22.83;;;15.60;;
38083;SDS011;23894;51.466;7.444;2024-01-07T04:24:40;17.70;;;13.80;;
38083;SDS011;23894;51.466;7.444;2024-01-07T04:26:41;22.25;;;15.00;;
38083;SDS011;23894;51.466;7.444;2024-01-07T04:28:42;18.85;;;14.30;;
38083;SDS011;23894;51.466;7.444;2024-01-07T04:30:43;19.48;;;14.35;;
38083;SDS011;23894;51.466;7.444;2024-01-07T04:32:44;20.63;;;14.73;;
38083;SDS011;23894;51.466;7.444;2024-01-07T04:34:45;22.08;;;14.75;;
38083;SDS011;23894;51.466;7.444;2024-01-07T04:36:46;17.98;;;14.02;;
38083;SDS011;23894;51.466;7.444;2024-01-07T04:40:48;17.50;;;13.80;;
38083;SDS011;23894;51.466;7.444;2024-01-07T04:42:49;19.85;;;15.18;;
38083;SDS011;23894;51.466;7.444;2024-01-07T04:44:50;23.58;;;14.82;;
38083;SDS011;23894;51.466;7.444;2024-01-07T04:46:51;17.50;;;13.63;;
38083;SDS011;23894;51.466;7.444;2024-01-07T04:48:52;19.63;;;13.85;;
38083;SDS011;23894;51.466;7.444;2024-01-07T04:50:53;21.88;;;15.02;;
38083;SDS011;23894;51.466;7.444;2024-01-07T04:52:54;20.70;;;13.90;;
38083;SDS011;23894;51.466;7.444;2024-01-07T04:54:56;20.55;;;14.45;;
38083;SDS011;23894;51.466;7.444;2024-01-07T04:56:57;20.00;;;14.48;;
38083;SDS011;23894;51.466;7.444;2024-01-07T04:58:58;21.42;;;15.20;;
38083;SDS011;23894;51.466;7.444;2024-01-07T05:00:59;19.35;;;13.82;;
38083;SDS011;23894;51.466;7.444;2024-01-07T05:05:01;16.48;;;13.23;;
38083;SDS011;23894;51.466;7.444;2024-01-07T05:07:02;18.17;;;13.43;;
38083;SDS011;23894;51.466;7.444;2024-01-07T05:09:03;19.92;;;14.48;;
38083;SDS011;23894;51.466;7.444;2024-01-07T05:11:04;18.92;;;13.45;;
38083;SDS011;23894;51.466;7.444;2024-01-07T05:13:05;18.25;;;12.80;;
38083;SDS011;23894;51.466;7.444;2024-01-07T05:15:06;20.60;;;13.88;;
38083;SDS011;23894;51.466;7.444;2024-01-07T05:17:08;19.08;;;13.95;;
38083;SDS011;23894;51.466;7.444;2024-01-07T05:19:09;16.23;;;12.68;;
38083;SDS011;23894;51.466;7.444;2024-01-07T05:21:10;18.67;;;13.55;;
38083;SDS011;23894;51.466;7.444;2024-01-07T05:23:11;21.77;;;14.20;;
38083;SDS011;23894;51.466;7.444;2024-01-07T05:25:12;19.45;;;14.38;;
38083;SDS011;23894;51.466;7.444;2024-01-07T05:27:13;17.33;;;13.35;;
38083;SDS011;23894;51.466;7.444;2024-01-07T05:29:14;18.80;;;12.68;;
38083;SDS011;23894;51.466;7.444;2024-01-07T05:31:15;17.92;;;13.98;;
38083;SDS011;23894;51.466;7.444;2024-01-07T05:33:16;17.67;;;13.23;;
38083;SDS011;23894;51.466;7.444;2024-01-07T05:35:17;18.60;;;14.32;;
38083;SDS011;23894;51.466;7.444;2024-01-07T05:37:18;18.85;;;14.98;;
38083;SDS011;23894;51.466;7.444;2024-01-07T05:39:19;21.48;;;15.13;;
38083;SDS011;23894;51.466;7.444;2024-01-07T05:41:20;19.15;;;13.80;;
38083;SDS011;23894;51.466;7.444;2024-01-07T05:45:22;18.67;;;14.55;;
38083;SDS011;23894;51.466;7.444;2024-01-07T05:47:23;22.00;;;14.85;;
38083;SDS011;23894;51.466;7.444;2024-01-07T05:49:24;22.92;;;14.50;;
38083;SDS011;23894;51.466;7.444;2024-01-07T05:51:25;21.63;;;14.80;;
38083;SDS011;23894;51.466;7.444;2024-01-07T05:53:26;20.48;;;14.82;;
38083;SDS011;23894;51.466;7.444;2024-01-07T05:55:27;18.15;;;14.20;;
38083;SDS011;23894;51.466;7.444;2024-01-07T05:57:28;20.02;;;15.05;;
38083;SDS011;23894;51.466;7.444;2024-01-07T06:01:30;19.92;;;14.75;;
38083;SDS011;23894;51.466;7.444;2024-01-07T06:03:31;19.05;;;14.88;;
38083;SDS011;23894;51.466;7.444;2024-01-07T06:05:32;23.48;;;16.90;;
38083;SDS011;23894;51.466;7.444;2024-01-07T06:07:33;21.98;;;15.35;;
38083;SDS011;23894;51.466;7.444;2024-01-07T06:09:34;19.23;;;14.23;;
38083;SDS011;23894;51.466;7.444;2024-01-07T06:15:38;19.92;;;13.90;;
38083;SDS011;23894;51.466;7.444;2024-01-07T06:17:39;22.60;;;15.75;;
38083;SDS011;23894;51.466;7.444;2024-01-07T06:19:40;23.35;;;15.80;;
38083;SDS011;23894;51.466;7.444;2024-01-07T06:21:40;20.17;;;14.90;;
38083;SDS011;23894;51.466;7.444;2024-01-07T06:23:41;23.90;;;16.40;;
38083;SDS011;23894;51.466;7.444;2024-01-07T06:25:42;21.13;;;15.95;;
38083;SDS011;23894;51.466;7.444;2024-01-07T06:27:44;20.75;;;16.08;;
38083;SDS011;23894;51.466;7.444;2024-01-07T06:29:45;21.75;;;15.05;;
38083;SDS011;23894;51.466;7.444;2024-01-07T06:31:46;17.60;;;13.05;;
38083;SDS011;23894;51.466;7.444;2024-01-07T06:33:48;18.35;;;14.02;;
38083;SDS011;23894;51.466;7.444;2024-01-07T06:35:49;19.98;;;14.45;;
38083;SDS011;23894;51.466;7.444;2024-01-07T06:37:50;21.80;;;14.98;;
38083;SDS011;23894;51.466;7.444;2024-01-07T06:39:51;21.55;;;16.25;;
38083;SDS011;23894;51.466;7.444;2024-01-07T06:41:53;22.70;;;15.88;;
38083;SDS011;23894;51.466;7.444;2024-01-07T06:43:54;18.13;;;14.50;;
38083;SDS011;23894;51.466;7.444;2024-01-07T06:45:56;23.38;;;16.27;;
38083;SDS011;23894;51.466;7.444;2024-01-07T06:47:57;20.13;;;15.82;;
38083;SDS011;23894;51.466;7.444;2024-01-07T06:49:58;22.45;;;16.25;;
38083;SDS011;23894;51.466;7.444;2024-01-07T06:51:59;19.52;;;15.07;;
38083;SDS011;23894;51.466;7.444;2024-01-07T06:54:00;21.63;;;16.58;;
38083;SDS011;23894;51.466;7.444;2024-01-07T06:56:01;22.25;;;15.93;;
38083;SDS011;23894;51.466;7.444;2024-01-07T06:58:02;18.95;;;14.57;;
38083;SDS011;23894;51.466;7.444;2024-01-07T07:00:04;24.20;;;17.08;;
38083;SDS011;23894;51.466;7.444;2024-01-07T07:02:05;23.77;;;15.93;;
38083;SDS011;23894;51.466;7.444;2024-01-07T07:04:06;19.55;;;14.13;;
38083;SDS011;23894;51.466;7.444;2024-01-07T07:06:07;20.77;;;14.73;;
38083;SDS011;23894;51.466;7.444;2024-01-07T07:08:08;19.75;;;14.35;;
38083;SDS011;23894;51.466;7.444;2024-01-07T07:10:09;21.38;;;14.13;;
38083;SDS011;23894;51.466;7.444;2024-01-07T07:12:11;17.80;;;13.23;;
38083;SDS011;23894;51.466;7.444;2024-01-07T07:14:13;17.15;;;12.57;;
38083;SDS011;23894;51.466;7.444;2024-01-07T07:16:14;17.27;;;12.68;;
38083;SDS011;23894;51.466;7.444;2024-01-07T07:18:15;18.55;;;14.02;;
38083;SDS011;23894;51.466;7.444;2024-01-07T07:20:16;17.05;;;13.82;;
38083;SDS011;23894;51.466;7.444;2024-01-07T07:24:18;17.55;;;12.80;;
38083;SDS011;23894;51.466;7.444;2024-01-07T07:26:19;15.32;;;11.95;;
38083;SDS011;23894;51.466;7.444;2024-01-07T07:28:20;20.15;;;13.65;;
38083;SDS011;23894;51.466;7.444;2024-01-07T07:30:21;14.73;;;12.90;;
38083;SDS011;23894;51.466;7.444;2024-01-07T07:32:22;19.95;;;13.25;;
38083;SDS011;23894;51.466;7.444;2024-01-07T07:34:23;16.90;;;13.45;;
38083;SDS011;23894;51.466;7.444;2024-01-07T07:36:24;15.02;;;12.25;;
38083;SDS011;23894;51.466;7.444;2024-01-07T07:38:25;17.98;;;12.70;;
38083;SDS011;23894;51.466;7.444;2024-01-07T07:40:26;17.50;;;12.82;;
38083;SDS011;23894;51.466;7.444;2024-01-07T07:44:28;14.52;;;11.10;;
38083;SDS011;23894;51.466;7.444;2024-01-07T07:46:29;15.05;;;11.30;;
38083;SDS011;23894;51.466;7.444;2024-01-07T07:48:30;17.00;;;12.07;;
38083;SDS011;23894;51.466;7.444;2024-01-07T07:50:31;15.82;;;11.32;;
38083;SDS011;23894;51.466;7.444;2024-01-07T07:52:32;15.02;;;11.40;;
38083;SDS011;23894;51.466;7.444;2024-01-07T07:54:34;14.63;;;11.10;;
38083;SDS011;23894;51.466;7.444;2024-01-07T07:56:35;13.32;;;10.35;;
38083;SDS011;23894;51.466;7.444;2024-01-07T07:58:36;14.57;;;11.73;;
38083;SDS011;23894;51.466;7.444;2024-01-07T08:00:37;12.73;;;9.98;;
38083;SDS011;23894;51.466;7.444;2024-01-07T08:02:38;12.40;;;8.90;;
38083;SDS011;23894;51.466;7.444;2024-01-07T08:04:39;11.43;;;8.77;;
38083;SDS011;23894;51.466;7.444;2024-01-07T08:06:44;10.50;;;8.05;;
38083;SDS011;23894;51.466;7.444;2024-01-07T08:08:45;10.80;;;8.05;;
38083;SDS011;23894;51.466;7.444;2024-01-07T08:10:46;11.32;;;8.90;;
38083;SDS011;23894;51.466;7.444;2024-01-07T08:12:47;12.27;;;8.55;;
38083;SDS011;23894;51.466;7.444;2024-01-07T08:14:49;12.27;;;8.65;;
38083;SDS011;23894;51.466;7.444;2024-01-07T08:16:50;12.35;;;8.70;;
38083;SDS011;23894;51.466;7.444;2024-01-07T08:20:52;12.00;;;8.85;;
38083;SDS011;23894;51.466;7.444;2024-01-07T08:22:53;10.30;;;8.73;;
38083;SDS011;23894;51.466;7.444;2024-01-07T08:24:54;11.35;;;9.07;;
38083;SDS011;23894;51.466;7.444;2024-01-07T08:26:55;14.02;;;9.57;;
38083;SDS011;23894;51.466;7.444;2024-01-07T08:28:56;13.40;;;10.02;;
38083;SDS011;23894;51.466;7.444;2024-01-07T08:30:57;16.50;;;11.63;;
38083;SDS011;23894;51.466;7.444;2024-01-07T08:32:58;13.23;;;10.45;;
38083;SDS011;23894;51.466;7.444;2024-01-07T08:34:59;13.30;;;10.82;;
38083;SDS011;23894;51.466;7.444;2024-01-07T08:37:00;17.92;;;11.98;;
38083;SDS011;23894;51.466;7.444;2024-01-07T08:39:01;14.10;;;11.13;;
38083;SDS011;23894;51.466;7.444;2024-01-07T08:41:02;15.90;;;11.68;;
38083;SDS011;23894;51.466;7.444;2024-01-07T08:43:03;15.50;;;11.93;;
38083;SDS011;23894;51.466;7.444;2024-01-07T08:47:05;18.00;;;12.15;;
38083;SDS011;23894;51.466;7.444;2024-01-07T08:49:06;14.55;;;11.70;;
38083;SDS011;23894;51.466;7.444;2024-01-07T08:51:07;15.63;;;12.43;;
38083;SDS011;23894;51.466;7.444;2024-01-07T08:53:08;16.75;;;12.52;;
38083;SDS011;23894;51.466;7.444;2024-01-07T08:55:10;14.70;;;10.80;;
38083;SDS011;23894;51.466;7.444;2024-01-07T08:57:11;16.55;;;12.07;;
38083;SDS011;23894;51.466;7.444;2024-01-07T08:59:12;14.43;;;11.23;;
38083;SDS011;23894;51.466;7.444;2024-01-07T09:01:13;20.90;;;11.50;;
38083;SDS011;23894;51.466;7.444;2024-01-07T09:03:14;13.10;;;10.75;;
38083;SDS011;23894;51.466;7.444;2024-01-07T09:05:15;13.02;;;10.38;;
38083;SDS011;23894;51.466;7.444;2024-01-07T09:07:16;14.73;;;10.52;;
38083;SDS011;23894;51.466;7.444;2024-01-07T09:09:17;14.23;;;10.23;;
38083;SDS011;23894;51.466;7.444;2024-01-07T09:11:18;14.93;;;10.05;;
38083;SDS011;23894;51.466;7.444;2024-01-07T09:13:19;15.77;;;10.02;;
38083;SDS011;23894;51.466;7.444;2024-01-07T09:15:20;14.07;;;10.10;;
38083;SDS011;23894;51.466;7.444;2024-01-07T09:19:22;14.93;;;10.43;;
38083;SDS011;23894;51.466;7.444;2024-01-07T09:21:23;15.93;;;10.63;;
38083;SDS011;23894;51.466;7.444;2024-01-07T09:23:25;14.45;;;10.65;;
38083;SDS011;23894;51.466;7.444;2024-01-07T09:25:26;18.88;;;9.90;;
38083;SDS011;23894;51.466;7.444;2024-01-07T09:27:27;14.48;;;10.23;;
38083;SDS011;23894;51.466;7.444;2024-01-07T09:29:28;13.20;;;10.20;;
38083;SDS011;23894;51.466;7.444;2024-01-07T09:31:29;15.38;;;10.77;;
38083;SDS011;23894;51.466;7.444;2024-01-07T09:33:30;12.02;;;9.00;;
38083;SDS011;23894;51.466;7.444;2024-01-07T09:35:31;11.85;;;9.68;;
38083;SDS011;23894;51.466;7.444;2024-01-07T09:37:32;14.80;;;9.95;;
38083;SDS011;23894;51.466;7.444;2024-01-07T09:41:34;13.05;;;10.07;;
38083;SDS011;23894;51.466;7.444;2024-01-07T09:43:35;14.60;;;10.05;;
38083;SDS011;23894;51.466;7.444;2024-01-07T09:45:37;13.63;;;10.23;;
38083;SDS011;23894;51.466;7.444;2024-01-07T09:47:40;15.13;;;9.57;;
38083;SDS011;23894;51.466;7.444;2024-01-07T09:49:42;14.50;;;9.48;;
38083;SDS011;23894;51.466;7.444;2024-01-07T09:51:44;12.27;;;9.27;;
38083;SDS011;23894;51.466;7.444;2024-01-07T09:53:49;13.38;;;9.63;;
38083;SDS011;23894;51.466;7.444;2024-01-07T09:56:01;12.25;;;9.05;;
38083;SDS011;23894;51.466;7.444;2024-01-07T09:58:02;14.02;;;9.43;;
38083;SDS011;23894;51.466;7.444;2024-01-07T10:00:04;13.98;;;9.25;;
38083;SDS011;23894;51.466;7.444;2024-01-07T10:02:05;13.18;;;7.97;;
38083;SDS011;23894;51.466;7.444;2024-01-07T10:04:06;13.05;;;7.82;;
38083;SDS011;23894;51.466;7.444;2024-01-07T10:06:07;11.82;;;7.30;;
38083;SDS011;23894;51.466;7.444;2024-01-07T10:08:09;12.68;;;7.97;;
38083;SDS011;23894;51.466;7.444;2024-01-07T10:10:16;11.30;;;7.25;;
38083;SDS011;23894;51.466;7.444;2024-01-07T10:12:17;12.55;;;9.48;;
38083;SDS011;23894;51.466;7.444;2024-01-07T10:14:18;15.10;;;8.18;;
38083;SDS011;23894;51.466;7.444;2024-01-07T10:16:22;10.98;;;7.68;;
38083;SDS011;23894;51.466;7.444;2024-01-07T10:18:23;12.77;;;7.65;;
38083;SDS011;23894;51.466;7.444;2024-01-07T10:20:25;12.93;;;7.43;;
38083;SDS011;23894;51.466;7.444;2024-01-07T10:22:26;12.32;;;7.25;;
38083;SDS011;23894;51.466;7.444;2024-01-07T10:26:28;11.23;;;7.32;;
38083;SDS011;23894;51.466;7.444;2024-01-07T10:28:30;10.52;;;6.68;;
38083;SDS011;23894;51.466;7.444;2024-01-07T10:30:31;13.70;;;8.30;;
38083;SDS011;23894;51.466;7.444;2024-01-07T10:32:35;12.90;;;6.70;;
38083;SDS011;23894;51.466;7.444;2024-01-07T10:34:37;10.40;;;6.85;;
38083;SDS011;23894;51.466;7.444;2024-01-07T10:36:38;12.02;;;6.15;;
38083;SDS011;23894;51.466;7.444;2024-01-07T10:38:40;9.38;;;6.20;;
38083;SDS011;23894;51.466;7.444;2024-01-07T10:40:42;9.23;;;7.05;;
38083;SDS011;23894;51.466;7.444;2024-01-07T10:42:43;9.10;;;6.13;;
38083;SDS011;23894;51.466;7.444;2024-01-07T10:44:45;8.88;;;5.88;;
38083;SDS011;23894;51.466;7.444;2024-01-07T10:46:46;8.75;;;6.10;;
38083;SDS011;23894;51.466;7.444;2024-01-07T10:48:51;8.30;;;5.70;;
38083;SDS011;23894;51.466;7.444;2024-01-07T10:50:54;9.30;;;5.63;;
38083;SDS011;23894;51.466;7.444;2024-01-07T10:53:02;8.25;;;5.88;;
38083;SDS011;23894;51.466;7.444;2024-01-07T10:55:08;8.65;;;5.85;;
38083;SDS011;23894;51.466;7.444;2024-01-07T10:59:15;9.35;;;5.97;;
38083;SDS011;23894;51.466;7.444;2024-01-07T11:01:17;10.10;;;5.95;;
38083;SDS011;23894;51.466;7.444;2024-01-07T11:03:31;8.45;;;5.47;;
38083;SDS011;23894;51.466;7.444;2024-01-07T11:05:39;8.07;;;5.40;;
38083;SDS011;23894;51.466;7.444;2024-01-07T11:07:43;8.60;;;5.63;;
38083;SDS011;23894;51.466;7.444;2024-01-07T11:09:49;10.52;;;5.65;;
38083;SDS011;23894;51.466;7.444;2024-01-07T11:11:54;8.15;;;5.18;;
38083;SDS011;23894;51.466;7.444;2024-01-07T11:15:56;8.70;;;5.40;;
38083;SDS011;23894;51.466;7.444;2024-01-07T11:17:57;7.95;;;5.75;;
38083;SDS011;23894;51.466;7.444;2024-01-07T11:20:02;8.38;;;5.75;;
38083;SDS011;23894;51.466;7.444;2024-01-07T11:24:39;10.10;;;6.50;;
38083;SDS011;23894;51.466;7.444;2024-01-07T11:26:40;6.97;;;4.90;;
38083;SDS011;23894;51.466;7.444;2024-01-07T11:28:42;8.18;;;6.15;;
38083;SDS011;23894;51.466;7.444;2024-01-07T11:30:45;7.25;;;5.00;;
38083;SDS011;23894;51.466;7.444;2024-01-07T11:32:55;8.93;;;5.95;;
38083;SDS011;23894;51.466;7.444;2024-01-07T11:34:57;7.55;;;5.53;;
38083;SDS011;23894;51.466;7.444;2024-01-07T11:36:59;9.15;;;5.90;;
38083;SDS011;23894;51.466;7.444;2024-01-07T11:41:03;10.10;;;5.63;;
38083;SDS011;23894;51.466;7.444;2024-01-07T11:43:05;7.57;;;5.65;;
38083;SDS011;23894;51.466;7.444;2024-01-07T11:45:06;9.90;;;5.90;;
38083;SDS011;23894;51.466;7.444;2024-01-07T11:47:10;9.23;;;5.88;;
38083;SDS011;23894;51.466;7.444;2024-01-07T11:49:11;9.75;;;6.03;;
38083;SDS011;23894;51.466;7.444;2024-01-07T11:51:12;11.00;;;7.03;;
38083;SDS011;23894;51.466;7.444;2024-01-07T11:53:13;7.68;;;5.82;;
38083;SDS011;23894;51.466;7.444;2024-01-07T11:55:14;8.05;;;5.88;;
38083;SDS011;23894;51.466;7.444;2024-01-07T11:57:16;7.88;;;5.90;;
38083;SDS011;23894;51.466;7.444;2024-01-07T11:59:17;10.00;;;6.25;;
38083;SDS011;23894;51.466;7.444;2024-01-07T12:01:18;8.85;;;6.10;;
38083;SDS011;23894;51.466;7.444;2024-01-07T12:05:20;10.80;;;6.93;;
38083;SDS011;23894;51.466;7.444;2024-01-07T12:07:21;9.25;;;6.18;;
38083;SDS011;23894;51.466;7.444;2024-01-07T12:09:22;8.55;;;6.10;;
38083;SDS011;23894;51.466;7.444;2024-01-07T12:11:23;10.15;;;7.15;;
38083;SDS011;23894;51.466;7.444;2024-01-07T12:13:24;7.07;;;5.22;;
38083;SDS011;23894;51.466;7.444;2024-01-07T12:15:25;7.63;;;6.05;;
38083;SDS011;23894;51.466;7.444;2024-01-07T12:19:28;7.00;;;5.32;;
38083;SDS011;23894;51.466;7.444;2024-01-07T12:21:29;7.60;;;5.20;;
38083;SDS011;23894;51.466;7.444;2024-01-07T12:23:34;8.38;;;5.50;;
38083;SDS011;23894;51.466;7.444;2024-01-07T12:25:36;8.38;;;5.20;;
38083;SDS011;23894;51.466;7.444;2024-01-07T12:27:37;8.68;;;5.63;;
38083;SDS011;23894;51.466;7.444;2024-01-07T12:29:41;8.25;;;5.55;;
38083;SDS011;23894;51.466;7.444;2024-01-07T12:31:43;8.13;;;5.25;;
38083;SDS011;23894;51.466;7.444;2024-01-07T12:33:47;10.38;;;5.30;;
38083;SDS011;23894;51.466;7.444;2024-01-07T12:37:49;9.88;;;6.43;;
38083;SDS011;23894;51.466;7.444;2024-01-07T12:39:50;8.27;;;5.40;;
38083;SDS011;23894;51.466;7.444;2024-01-07T12:41:51;8.98;;;5.30;;
38083;SDS011;23894;51.466;7.444;2024-01-07T12:43:52;8.43;;;5.47;;
38083;SDS011;23894;51.466;7.444;2024-01-07T12:45:53;7.25;;;4.95;;
38083;SDS011;23894;51.466;7.444;2024-01-07T12:47:56;7.35;;;5.72;;
38083;SDS011;23894;51.466;7.444;2024-01-07T12:50:00;7.13;;;5.32;;
38083;SDS011;23894;51.466;7.444;2024-01-07T12:52:01;7.07;;;4.68;;
38083;SDS011;23894;51.466;7.444;2024-01-07T12:54:02;8.77;;;6.63;;